createdAt,value
2022-07-27T00:01:19.853Z,0.57
2022-07-27T00:03:47.569Z,0.70
2022-07-27T00:06:15.995Z,0.80
2022-07-27T00:08:43.277Z,0.77
2022-07-27T00:11:12.994Z,0.73
2022-07-27T00:13:42.516Z,0.68
2022-07-27T00:16:09.445Z,0.70
2022-07-27T00:18:39.123Z,0.68
2022-07-27T00:21:06.158Z,0.70
2022-07-27T00:23:35.388Z,0.85
2022-07-27T00:26:02.343Z,0.82
2022-07-27T00:28:29.292Z,0.88
2022-07-27T00:30:58.470Z,0.70
2022-07-27T00:33:27.434Z,1.00
2022-07-27T00:35:56.503Z,0.60
2022-07-27T00:38:23.575Z,0.70
2022-07-27T00:40:50.493Z,0.77
2022-07-27T00:43:17.389Z,0.77
2022-07-27T00:45:47.321Z,0.63
2022-07-27T00:48:14.230Z,0.70
2022-07-27T00:50:43.465Z,0.73
2022-07-27T00:53:12.728Z,1.00
2022-07-27T00:55:43.058Z,0.70
2022-07-27T00:58:10.842Z,0.68
2022-07-27T01:00:38.526Z,0.85
2022-07-27T01:03:07.459Z,0.90
2022-07-27T01:05:42.741Z,0.80
2022-07-27T01:08:14.330Z,0.60
2022-07-27T01:10:44.920Z,0.70
2022-07-27T01:13:13.167Z,0.68
2022-07-27T01:15:41.642Z,0.77
2022-07-27T01:18:34.086Z,0.60
2022-07-27T01:21:05.516Z,0.80
2022-07-27T01:26:04.437Z,0.93
2022-07-27T01:28:33.837Z,0.70
2022-07-27T01:31:01.095Z,0.75
2022-07-27T01:33:28.154Z,0.70
2022-07-27T01:35:57.332Z,1.00
2022-07-27T01:38:24.378Z,0.57
2022-07-27T01:40:53.891Z,0.80
2022-07-27T01:43:21.414Z,0.70
2022-07-27T01:45:49.364Z,0.90
2022-07-27T01:48:16.243Z,0.73
2022-07-27T01:50:47.912Z,0.70
2022-07-27T01:53:14.999Z,1.00
2022-07-27T01:55:41.951Z,0.80
2022-07-27T01:58:09.772Z,0.98
2022-07-27T02:00:40.621Z,1.00
2022-07-27T02:03:11.524Z,0.95
2022-07-27T02:05:39.768Z,0.80
2022-07-27T02:08:09.891Z,0.80
2022-07-27T02:10:57.678Z,1.05
2022-07-27T02:13:25.607Z,1.02
2022-07-27T02:15:54.557Z,0.90
2022-07-27T02:18:33.169Z,1.00
2022-07-27T02:23:36.806Z,0.77
2022-07-27T02:26:06.195Z,0.82
2022-07-27T02:28:34.624Z,0.85
2022-07-27T02:31:02.259Z,0.68
2022-07-27T02:33:29.432Z,0.63
2022-07-27T02:35:58.564Z,1.10
2022-07-27T02:38:27.837Z,0.80
2022-07-27T02:40:54.766Z,0.80
2022-07-27T02:43:21.688Z,0.68
2022-07-27T02:45:52.594Z,0.90
2022-07-27T02:48:22.030Z,0.77
2022-07-27T02:50:51.174Z,0.68
2022-07-27T02:53:20.767Z,0.90
2022-07-27T02:55:47.727Z,0.85
2022-07-27T02:58:14.669Z,0.80
2022-07-27T03:00:41.542Z,0.60
2022-07-27T03:03:08.457Z,0.80
2022-07-27T03:05:35.577Z,0.82
2022-07-27T03:08:02.742Z,0.90
2022-07-27T03:10:32.436Z,0.70
2022-07-27T03:12:59.265Z,0.75
2022-07-27T03:15:26.287Z,1.35
2022-07-27T03:17:53.180Z,1.00
2022-07-27T03:20:20.152Z,0.80
2022-07-27T03:22:47.209Z,0.80
2022-07-27T03:25:14.085Z,0.80
2022-07-27T03:27:41.004Z,0.93
2022-07-27T03:30:08.824Z,0.95
2022-07-27T03:32:35.784Z,0.80
2022-07-27T03:35:03.498Z,1.00
2022-07-27T03:37:32.808Z,0.80
2022-07-27T03:39:59.701Z,1.10
2022-07-27T03:42:26.583Z,0.90
2022-07-27T03:44:53.819Z,0.75
2022-07-27T03:47:23.291Z,0.90
2022-07-27T03:49:50.242Z,0.82
2022-07-27T03:52:17.951Z,0.90
2022-07-27T03:54:48.690Z,1.00
2022-07-27T03:57:18.118Z,1.00
2022-07-27T03:59:45.037Z,0.80
2022-07-27T04:02:12.016Z,1.00
2022-07-27T04:04:38.984Z,1.08
2022-07-27T04:07:05.911Z,1.00
2022-07-27T04:09:32.795Z,1.00
2022-07-27T04:11:59.748Z,0.90
2022-07-27T04:14:26.847Z,0.82
2022-07-27T04:16:56.446Z,1.05
2022-07-27T04:19:23.462Z,0.90
2022-07-27T04:21:52.670Z,0.93
2022-07-27T04:24:19.610Z,1.10
2022-07-27T04:26:46.613Z,1.02
2022-07-27T04:29:19.660Z,1.08
2022-07-27T04:31:47.471Z,1.10
2022-07-27T04:34:16.458Z,1.15
2022-07-27T04:36:43.411Z,1.15
2022-07-27T04:39:10.626Z,1.27
2022-07-27T04:41:37.985Z,1.15
2022-07-27T04:44:05.348Z,1.17
2022-07-27T04:46:32.466Z,1.20
2022-07-27T04:49:01.511Z,1.20
2022-07-27T04:51:34.081Z,1.30
2022-07-27T04:54:02.394Z,1.40
2022-07-27T04:56:31.743Z,1.40
2022-07-27T04:58:58.655Z,1.20
2022-07-27T05:01:26.742Z,1.10
2022-07-27T05:03:56.264Z,1.30
2022-07-27T05:06:23.502Z,1.20
2022-07-27T05:08:50.426Z,1.15
2022-07-27T05:11:17.646Z,1.35
2022-07-27T05:13:47.561Z,1.00
2022-07-27T05:16:14.480Z,1.30
2022-07-27T05:18:45.594Z,1.20
2022-07-27T05:21:12.452Z,1.17
2022-07-27T05:23:39.354Z,1.48
2022-07-27T05:26:06.269Z,1.50
2022-07-27T05:28:37.713Z,1.17
2022-07-27T05:33:34.377Z,1.17
2022-07-27T05:36:01.316Z,1.30
2022-07-27T05:38:28.897Z,1.20
2022-07-27T05:40:55.867Z,1.10
2022-07-27T05:43:22.731Z,1.48
2022-07-27T05:45:50.354Z,1.38
2022-07-27T05:48:17.280Z,1.30
2022-07-27T05:50:46.497Z,1.27
2022-07-27T05:53:16.534Z,1.40
2022-07-27T05:55:59.234Z,1.65
2022-07-27T05:58:29.478Z,0.98
2022-07-27T06:00:56.801Z,2.10
2022-07-27T06:03:24.112Z,1.58
2022-07-27T06:06:13.732Z,1.30
2022-07-27T06:08:40.707Z,1.40
2022-07-27T06:11:09.857Z,1.33
2022-07-27T06:13:42.311Z,1.45
2022-07-27T06:16:13.010Z,1.60
2022-07-27T06:18:42.444Z,1.30
2022-07-27T06:21:09.489Z,1.48
2022-07-27T06:23:36.449Z,1.58
2022-07-27T06:26:03.432Z,1.38
2022-07-27T06:28:30.783Z,1.42
2022-07-27T06:31:02.817Z,1.50
2022-07-27T06:33:30.849Z,1.33
2022-07-27T06:35:59.656Z,1.35
2022-07-27T06:38:29.246Z,1.40
2022-07-27T06:40:59.359Z,1.20
2022-07-27T06:43:32.580Z,1.30
2022-07-27T06:46:03.243Z,1.30
2022-07-27T06:48:30.229Z,1.35
2022-07-27T06:51:00.215Z,1.50
2022-07-27T06:53:27.130Z,1.20
2022-07-27T06:55:58.242Z,1.30
2022-07-27T06:58:27.654Z,1.40
2022-07-27T07:00:57.759Z,1.40
2022-07-27T07:03:24.853Z,1.42
2022-07-27T07:05:51.821Z,1.65
2022-07-27T07:08:18.726Z,1.50
2022-07-27T07:10:46.083Z,1.27
2022-07-27T07:13:15.833Z,1.70
2022-07-27T07:15:45.786Z,1.10
2022-07-27T07:18:13.569Z,1.60
2022-07-27T07:20:44.179Z,1.52
2022-07-27T07:23:12.111Z,1.45
2022-07-27T07:25:41.990Z,1.10
2022-07-27T07:28:09.270Z,1.30
2022-07-27T07:30:36.877Z,1.20
2022-07-27T07:33:04.434Z,1.50
2022-07-27T07:35:31.983Z,1.40
2022-07-27T07:37:58.953Z,1.38
2022-07-27T07:40:46.275Z,1.35
2022-07-27T07:43:14.018Z,1.40
2022-07-27T07:45:51.149Z,1.50
2022-07-27T07:48:20.872Z,1.20
2022-07-27T07:50:53.950Z,1.33
2022-07-27T07:53:27.121Z,1.40
2022-07-27T07:55:58.074Z,1.13
2022-07-27T07:58:25.080Z,1.20
2022-07-27T08:00:52.061Z,1.10
2022-07-27T08:03:19.719Z,1.42
2022-07-27T08:05:47.308Z,1.17
2022-07-27T08:08:17.127Z,1.30
2022-07-27T08:10:44.477Z,1.10
2022-07-27T08:13:19.530Z,1.60
2022-07-27T08:15:48.882Z,1.40
2022-07-27T08:18:19.026Z,1.30
2022-07-27T08:20:46.053Z,1.10
2022-07-27T08:23:13.186Z,1.42
2022-07-27T08:25:40.198Z,1.10
2022-07-27T08:28:07.562Z,0.95
2022-07-27T08:30:34.793Z,1.17
2022-07-27T08:33:04.760Z,1.20
2022-07-27T08:35:35.215Z,1.40
2022-07-27T08:38:05.761Z,1.13
2022-07-27T08:40:45.992Z,1.10
2022-07-27T08:43:24.761Z,1.20
2022-07-27T08:45:58.147Z,1.10
2022-07-27T08:48:27.932Z,1.20
2022-07-27T08:50:56.038Z,1.10
2022-07-27T08:53:24.231Z,1.02
2022-07-27T08:55:51.592Z,1.00
2022-07-27T08:58:18.591Z,0.90
2022-07-27T09:00:48.463Z,1.23
2022-07-27T09:03:21.201Z,1.17
2022-07-27T09:05:53.598Z,1.00
2022-07-27T09:08:30.312Z,1.05
2022-07-27T09:10:59.513Z,1.08
2022-07-27T09:13:33.412Z,1.00
2022-07-27T09:16:23.522Z,1.10
2022-07-27T09:19:11.658Z,1.03
2022-07-27T09:21:38.724Z,1.23
2022-07-27T09:24:44.469Z,1.10
2022-07-27T09:27:05.634Z,1.13
2022-07-27T09:29:36.875Z,1.00
2022-07-27T09:32:18.181Z,1.20
2022-07-27T09:34:47.723Z,0.80
2022-07-27T09:37:25.330Z,1.00
2022-07-27T09:40:12.335Z,0.90
2022-07-27T09:43:08.711Z,1.17
2022-07-27T09:45:34.204Z,0.98
2022-07-27T09:48:21.666Z,0.90
2022-07-27T09:51:32.740Z,1.08
2022-07-27T09:53:54.784Z,1.13
2022-07-27T09:56:31.180Z,1.08
2022-07-27T09:59:03.521Z,1.10
2022-07-27T10:01:35.165Z,1.20
2022-07-27T10:04:06.327Z,0.95
2022-07-27T10:09:23.163Z,1.23
2022-07-27T10:11:50.668Z,1.02
2022-07-27T10:14:17.777Z,1.00
2022-07-27T10:16:49.185Z,1.10
2022-07-27T10:19:20.714Z,1.13
2022-07-27T10:21:50.178Z,1.33
2022-07-27T10:24:29.116Z,1.20
2022-07-27T10:26:58.782Z,1.08
2022-07-27T10:29:28.175Z,1.27
2022-07-27T10:31:55.004Z,1.30
2022-07-27T10:34:44.094Z,1.10
2022-07-27T10:37:26.787Z,1.10
2022-07-27T10:40:24.870Z,1.30
2022-07-27T10:43:19.884Z,1.00
2022-07-27T10:46:01.701Z,1.20
2022-07-27T10:48:48.405Z,1.20
2022-07-27T10:51:21.195Z,1.17
2022-07-27T10:54:12.005Z,1.13
2022-07-27T10:56:48.143Z,1.17
2022-07-27T10:59:17.969Z,0.90
2022-07-27T11:01:57.571Z,1.10
2022-07-27T11:04:25.289Z,0.85
2022-07-27T11:10:06.560Z,1.05
2022-07-27T11:12:40.687Z,1.10
2022-07-27T11:15:08.148Z,1.05
2022-07-27T11:20:24.152Z,1.02
2022-07-27T11:23:34.326Z,1.00
2022-07-27T11:25:38.297Z,0.98
2022-07-27T11:28:09.821Z,3.28
2022-07-27T11:30:38.970Z,1.35
2022-07-27T11:33:05.965Z,1.20
2022-07-27T11:35:33.018Z,1.38
2022-07-27T11:38:03.439Z,1.00
2022-07-27T11:41:02.299Z,1.10
2022-07-27T11:43:38.433Z,1.50
2022-07-27T11:46:23.011Z,1.27
2022-07-27T11:49:09.459Z,1.00
2022-07-27T11:51:43.227Z,1.08
2022-07-27T11:54:29.178Z,0.95
2022-07-27T11:56:59.614Z,1.08
2022-07-27T11:59:39.877Z,1.00
2022-07-27T12:02:19.873Z,1.10
2022-07-27T12:04:52.185Z,0.85
2022-07-27T12:07:32.417Z,1.00
2022-07-27T12:10:07.044Z,1.10
2022-07-27T12:12:41.675Z,0.95
2022-07-27T12:15:44.388Z,0.93
2022-07-27T12:18:06.713Z,1.00
2022-07-27T12:20:36.484Z,0.95
2022-07-27T12:23:07.775Z,1.00
2022-07-27T12:25:35.527Z,1.00
2022-07-27T12:28:08.324Z,1.13
2022-07-27T12:30:41.037Z,0.88
2022-07-27T12:33:37.226Z,1.02
2022-07-27T12:36:07.935Z,0.98
2022-07-27T12:38:46.183Z,1.00
2022-07-27T12:41:37.752Z,1.05
2022-07-27T12:44:16.899Z,0.95
2022-07-27T12:47:02.480Z,1.08
2022-07-27T12:49:43.192Z,1.17
2022-07-27T12:52:15.589Z,0.82
2022-07-27T12:54:44.944Z,1.05
2022-07-27T12:57:24.337Z,1.02
2022-07-27T13:00:00.769Z,1.10
2022-07-27T13:02:29.730Z,1.10
2022-07-27T13:04:56.982Z,0.90
2022-07-27T13:07:23.967Z,1.05
2022-07-27T13:10:03.066Z,1.27
2022-07-27T13:12:31.089Z,1.10
2022-07-27T13:14:58.149Z,1.00
2022-07-27T13:17:25.113Z,0.93
2022-07-27T13:19:55.058Z,1.30
2022-07-27T13:22:21.991Z,1.13
2022-07-27T13:24:48.980Z,1.23
2022-07-27T13:27:18.412Z,0.90
2022-07-27T13:29:47.912Z,1.02
2022-07-27T13:32:14.919Z,0.98
2022-07-27T13:34:45.420Z,1.20
2022-07-27T13:37:12.327Z,1.20
2022-07-27T13:39:39.354Z,1.20
2022-07-27T13:42:11.222Z,1.23
2022-07-27T13:45:03.736Z,1.20
2022-07-27T13:47:33.265Z,1.08
2022-07-27T13:50:00.334Z,1.00
2022-07-27T13:52:27.333Z,1.23
2022-07-27T13:54:54.333Z,1.23
2022-07-27T13:57:24.071Z,1.10
2022-07-27T13:59:53.759Z,1.50
2022-07-27T14:02:23.320Z,1.00
2022-07-27T14:04:55.445Z,1.13
2022-07-27T14:07:28.292Z,1.05
2022-07-27T14:10:17.185Z,1.55
2022-07-27T14:12:46.390Z,1.55
2022-07-27T14:15:13.348Z,1.55
2022-07-27T14:17:40.347Z,1.20
2022-07-27T14:20:13.739Z,1.30
2022-07-27T14:22:42.841Z,1.40
2022-07-27T14:25:10.114Z,1.30
2022-07-27T14:27:39.253Z,1.15
2022-07-27T14:30:08.118Z,1.25
2022-07-27T14:32:36.018Z,1.23
2022-07-27T14:35:03.914Z,1.30
2022-07-27T14:37:36.402Z,1.20
2022-07-27T14:40:05.731Z,1.15
2022-07-27T14:42:35.124Z,1.55
2022-07-27T14:45:07.726Z,1.33
2022-07-27T14:47:34.726Z,1.42
2022-07-27T14:50:01.785Z,1.67
2022-07-27T14:52:33.652Z,1.90
2022-07-27T14:55:01.848Z,1.83
2022-07-27T14:57:31.658Z,2.10
2022-07-27T14:59:58.593Z,2.22
2022-07-27T15:02:25.588Z,2.55
2022-07-27T15:04:54.785Z,2.25
2022-07-27T15:07:24.085Z,2.28
2022-07-27T15:09:53.962Z,2.30
2022-07-27T15:12:20.898Z,2.67
2022-07-27T15:14:48.140Z,2.50
2022-07-27T15:17:15.100Z,2.35
2022-07-27T15:19:41.991Z,2.80
2022-07-27T15:22:08.939Z,2.92
2022-07-27T15:24:38.380Z,2.47
2022-07-27T15:27:05.509Z,2.50
2022-07-27T15:29:32.468Z,2.20
2022-07-27T15:32:01.604Z,2.35
2022-07-27T15:34:28.790Z,1.98
2022-07-27T15:36:58.252Z,1.88
2022-07-27T15:39:25.266Z,2.05
2022-07-27T15:41:52.208Z,1.98
2022-07-27T15:44:26.260Z,1.90
2022-07-27T15:46:55.436Z,1.75
2022-07-27T15:49:25.094Z,1.70
2022-07-27T15:51:52.596Z,1.90
2022-07-27T15:54:20.806Z,1.80
2022-07-27T15:56:48.201Z,1.88
2022-07-27T15:59:16.591Z,1.77
2022-07-27T16:01:47.147Z,1.80
2022-07-27T16:04:16.445Z,1.80
2022-07-27T16:06:45.850Z,2.00
2022-07-27T16:09:13.834Z,1.70
2022-07-27T16:11:40.975Z,1.60
2022-07-27T16:14:10.159Z,1.50
2022-07-27T16:16:40.165Z,1.73
2022-07-27T16:19:12.579Z,1.60
2022-07-27T16:21:55.053Z,1.70
2022-07-27T16:24:28.931Z,1.48
2022-07-27T16:26:59.587Z,1.77
2022-07-27T16:29:32.140Z,1.75
2022-07-27T16:32:01.485Z,1.83
2022-07-27T16:34:31.363Z,1.67
2022-07-27T16:37:01.469Z,1.77
2022-07-27T16:39:28.581Z,1.70
2022-07-27T16:41:55.786Z,1.85
2022-07-27T16:44:22.912Z,1.77
2022-07-27T16:46:49.918Z,1.67
2022-07-27T16:49:18.391Z,1.80
2022-07-27T16:51:46.679Z,1.70
2022-07-27T16:54:16.810Z,1.77
2022-07-27T16:56:46.838Z,1.80
2022-07-27T16:59:14.101Z,1.77
2022-07-27T17:01:43.603Z,1.63
2022-07-27T17:04:10.708Z,1.60
2022-07-27T17:06:37.741Z,2.60
2022-07-27T17:09:07.106Z,1.90
2022-07-27T17:11:37.300Z,1.80
2022-07-27T17:14:08.079Z,1.80
2022-07-27T17:16:37.322Z,2.00
2022-07-27T17:19:04.306Z,1.83
2022-07-27T17:21:31.200Z,1.58
2022-07-27T17:24:01.116Z,1.70
2022-07-27T17:26:28.072Z,1.45
2022-07-27T17:28:55.079Z,1.80
2022-07-27T17:31:22.478Z,1.67
2022-07-27T17:33:52.491Z,1.58
2022-07-27T17:36:20.467Z,1.40
2022-07-27T17:38:49.357Z,1.38
2022-07-27T17:41:24.627Z,1.40
2022-07-27T17:43:54.101Z,1.58
2022-07-27T17:46:22.926Z,1.60
2022-07-27T17:48:52.990Z,1.98
2022-07-27T17:51:25.296Z,1.52
2022-07-27T17:53:52.439Z,1.63
2022-07-27T17:56:19.381Z,1.65
2022-07-27T17:58:46.749Z,1.60
2022-07-27T18:01:16.840Z,1.50
2022-07-27T18:03:43.961Z,1.75
2022-07-27T18:06:13.418Z,1.75
2022-07-27T18:08:40.340Z,1.30
2022-07-27T18:11:09.855Z,1.60
2022-07-27T18:13:39.642Z,1.90
2022-07-27T18:16:13.353Z,1.75
2022-07-27T18:18:43.578Z,1.45
2022-07-27T18:21:14.972Z,1.73
2022-07-27T18:23:42.791Z,1.55
2022-07-27T18:26:12.218Z,1.60
2022-07-27T18:28:42.286Z,1.63
2022-07-27T18:31:10.759Z,1.50
2022-07-27T18:33:39.328Z,1.23
2022-07-27T18:36:06.819Z,1.60
2022-07-27T18:38:33.923Z,1.20
2022-07-27T18:41:00.861Z,1.38
2022-07-27T18:43:29.830Z,1.50
2022-07-27T18:45:59.177Z,1.45
2022-07-27T18:48:26.183Z,1.60
2022-07-27T18:50:53.596Z,1.40
2022-07-27T18:53:20.588Z,1.45
2022-07-27T18:55:52.743Z,1.58
2022-07-27T18:58:22.660Z,1.15
2022-07-27T19:00:52.227Z,1.50
2022-07-27T19:03:24.803Z,1.50
2022-07-27T19:05:55.209Z,1.27
2022-07-27T19:08:22.665Z,1.30
2022-07-27T19:10:51.667Z,1.38
2022-07-27T19:13:18.550Z,1.23
2022-07-27T19:15:45.681Z,1.40
2022-07-27T19:18:12.817Z,1.48
2022-07-27T19:20:39.866Z,1.30
2022-07-27T19:23:10.519Z,1.23
2022-07-27T19:25:37.496Z,1.35
2022-07-27T19:28:04.755Z,1.30
2022-07-27T19:30:34.264Z,1.30
2022-07-27T19:33:01.623Z,1.20
2022-07-27T19:35:28.709Z,1.15
2022-07-27T19:37:57.836Z,1.40
2022-07-27T19:43:11.865Z,1.08
2022-07-27T19:45:41.492Z,1.33
2022-07-27T19:48:08.654Z,1.60
2022-07-27T19:50:35.626Z,1.20
2022-07-27T19:53:03.234Z,1.30
2022-07-27T19:55:30.280Z,1.40
2022-07-27T19:58:02.250Z,1.13
2022-07-27T20:00:29.295Z,1.58
2022-07-27T20:02:58.879Z,1.30
2022-07-27T20:05:28.657Z,1.30
2022-07-27T20:07:58.133Z,1.67
2022-07-27T20:10:25.946Z,1.27
2022-07-27T20:12:53.216Z,1.20
2022-07-27T20:15:20.213Z,1.65
2022-07-27T20:17:49.618Z,1.40
2022-07-27T20:20:18.981Z,1.70
2022-07-27T20:22:46.119Z,1.42
2022-07-27T20:25:14.849Z,1.50
2022-07-27T20:27:42.565Z,1.27
2022-07-27T20:30:11.061Z,1.60
2022-07-27T20:32:40.210Z,1.50
2022-07-27T20:35:09.922Z,1.35
2022-07-27T20:37:41.110Z,1.52
2022-07-27T20:42:42.639Z,1.27
2022-07-27T20:45:13.746Z,1.48
2022-07-27T20:47:44.204Z,1.58
2022-07-27T20:50:16.546Z,1.60
2022-07-27T20:52:44.002Z,1.35
2022-07-27T20:55:13.798Z,1.40
2022-07-27T20:57:43.221Z,1.40
2022-07-27T21:00:13.777Z,1.60
2022-07-27T21:02:43.066Z,1.55
2022-07-27T21:05:12.554Z,1.33
2022-07-27T21:07:42.680Z,1.45
2022-07-27T21:10:10.216Z,1.15
2022-07-27T21:12:37.133Z,1.35
2022-07-27T21:15:13.440Z,1.30
2022-07-27T21:17:45.810Z,1.67
2022-07-27T21:20:15.518Z,1.48
2022-07-27T21:22:45.236Z,1.50
2022-07-27T21:25:16.312Z,1.60
2022-07-27T21:27:50.267Z,1.55
2022-07-27T21:30:19.659Z,1.50
2022-07-27T21:32:46.581Z,1.40
2022-07-27T21:35:13.469Z,1.20
2022-07-27T21:37:43.737Z,1.60
2022-07-27T21:40:11.440Z,1.35
2022-07-27T21:42:41.098Z,1.52
2022-07-27T21:45:08.683Z,1.27
2022-07-27T21:47:35.677Z,1.48
2022-07-27T21:50:05.759Z,1.60
2022-07-27T21:52:32.643Z,1.45
2022-07-27T21:54:59.901Z,1.50
2022-07-27T21:57:26.822Z,1.50
2022-07-27T21:59:53.768Z,1.30
2022-07-27T22:02:23.009Z,1.48
2022-07-27T22:04:55.361Z,1.20
2022-07-27T22:07:22.272Z,1.38
2022-07-27T22:09:49.243Z,1.67
2022-07-27T22:12:16.221Z,1.85
2022-07-27T22:14:46.263Z,1.17
2022-07-27T22:17:13.142Z,1.50
2022-07-27T22:19:40.043Z,1.52
2022-07-27T22:22:07.041Z,1.30
2022-07-27T22:24:33.923Z,1.55
2022-07-27T22:27:00.837Z,1.45
2022-07-27T22:29:27.815Z,1.50
2022-07-27T22:31:57.882Z,1.38
2022-07-27T22:34:24.844Z,1.35
2022-07-27T22:36:51.977Z,1.58
2022-07-27T22:39:20.921Z,1.50
2022-07-27T22:41:47.848Z,1.42
2022-07-27T22:44:19.624Z,1.10
2022-07-27T22:46:50.387Z,1.23
2022-07-27T22:49:19.683Z,1.23
2022-07-27T22:51:49.990Z,1.15
2022-07-27T22:54:20.516Z,1.20
2022-07-27T22:56:48.713Z,1.42
2022-07-27T22:59:15.664Z,1.20
2022-07-27T23:01:46.296Z,1.20
2022-07-27T23:04:16.663Z,1.17
2022-07-27T23:06:44.389Z,1.30
2022-07-27T23:09:13.614Z,1.52
2022-07-27T23:11:40.561Z,1.30
2022-07-27T23:14:07.566Z,1.25
2022-07-27T23:16:34.964Z,1.20
2022-07-27T23:19:01.919Z,1.40
2022-07-27T23:21:31.909Z,1.40
2022-07-27T23:23:58.822Z,1.20
2022-07-27T23:26:27.778Z,1.33
2022-07-27T23:28:54.698Z,1.42
2022-07-27T23:31:22.583Z,1.02
2022-07-27T23:33:49.654Z,1.10
2022-07-27T23:36:16.612Z,1.00
2022-07-27T23:38:48.266Z,1.00
2022-07-27T23:41:17.644Z,1.10
2022-07-27T23:43:47.134Z,1.10
2022-07-27T23:46:14.146Z,1.20
2022-07-27T23:48:45.566Z,1.40
2022-07-27T23:53:48.648Z,1.00
2022-07-27T23:56:16.162Z,1.38
2022-07-27T23:58:43.531Z,1.40
